sensor_id;sensor_type;location;lat;lon;timestamp;pressure;altitude;pressure_sealevel;temperature;humidity
80627;BME280;69982;51.758;5.784;2024-03-25T00:01:31;100749.77;;;5.94;77.98
80627;BME280;69982;51.758;5.784;2024-03-25T00:03:59;100745.43;;;5.96;77.91
80627;BME280;69982;51.758;5.784;2024-03-25T00:06:28;100745.44;;;6.00;78.00
80627;BME280;69982;51.758;5.784;2024-03-25T00:09:01;100744.45;;;6.03;77.88
80627;BME280;69982;51.758;5.784;2024-03-25T00:11:31;100739.95;;;6.05;78.09
80627;BME280;69982;51.758;5.784;2024-03-25T00:13:59;100739.41;;;6.05;78.08
80627;BME280;69982;51.758;5.784;2024-03-25T00:16:26;100734.94;;;6.03;78.15
80627;BME280;69982;51.758;5.784;2024-03-25T00:19:02;100738.23;;;6.00;78.23
80627;BME280;69982;51.758;5.784;2024-03-25T00:21:31;100734.17;;;5.98;78.47
80627;BME280;69982;51.758;5.784;2024-03-25T00:24:01;100731.17;;;5.95;78.45
80627;BME280;69982;51.758;5.784;2024-03-25T00:26:31;100733.45;;;5.92;78.52
80627;BME280;69982;51.758;5.784;2024-03-25T00:28:59;100734.57;;;5.87;78.44
80627;BME280;69982;51.758;5.784;2024-03-25T00:31:52;100735.84;;;5.87;78.28
80627;BME280;69982;51.758;5.784;2024-03-25T00:34:20;100738.27;;;5.88;78.27
80627;BME280;69982;51.758;5.784;2024-03-25T00:36:48;100733.58;;;5.88;78.34
80627;BME280;69982;51.758;5.784;2024-03-25T00:39:17;100730.66;;;5.89;78.49
80627;BME280;69982;51.758;5.784;2024-03-25T00:41:45;100725.88;;;5.91;78.55
80627;BME280;69982;51.758;5.784;2024-03-25T00:44:15;100725.45;;;5.91;78.45
80627;BME280;69982;51.758;5.784;2024-03-25T00:46:43;100727.21;;;5.92;78.69
80627;BME280;69982;51.758;5.784;2024-03-25T00:49:11;100726.07;;;5.90;78.63
80627;BME280;69982;51.758;5.784;2024-03-25T00:51:38;100719.61;;;5.85;78.55
80627;BME280;69982;51.758;5.784;2024-03-25T00:54:06;100723.71;;;5.80;78.70
80627;BME280;69982;51.758;5.784;2024-03-25T00:56:34;100727.79;;;5.74;78.70
80627;BME280;69982;51.758;5.784;2024-03-25T00:59:02;100727.44;;;5.70;78.75
80627;BME280;69982;51.758;5.784;2024-03-25T01:01:33;100726.96;;;5.66;78.98
80627;BME280;69982;51.758;5.784;2024-03-25T01:04:03;100725.85;;;5.62;78.93
80627;BME280;69982;51.758;5.784;2024-03-25T01:06:34;100725.98;;;5.61;79.17
80627;BME280;69982;51.758;5.784;2024-03-25T01:09:03;100727.95;;;5.61;79.03
80627;BME280;69982;51.758;5.784;2024-03-25T01:11:31;100725.59;;;5.61;79.14
80627;BME280;69982;51.758;5.784;2024-03-25T01:13:59;100728.41;;;5.62;79.17
80627;BME280;69982;51.758;5.784;2024-03-25T01:16:27;100728.37;;;5.60;79.29
80627;BME280;69982;51.758;5.784;2024-03-25T01:19:01;100730.66;;;5.59;79.27
80627;BME280;69982;51.758;5.784;2024-03-25T01:21:28;100730.83;;;5.57;79.29
80627;BME280;69982;51.758;5.784;2024-03-25T01:24:01;100738.55;;;5.53;79.17
80627;BME280;69982;51.758;5.784;2024-03-25T01:26:28;100739.52;;;5.50;79.26
80627;BME280;69982;51.758;5.784;2024-03-25T01:29:02;100736.48;;;5.44;79.33
80627;BME280;69982;51.758;5.784;2024-03-25T01:31:33;100739.01;;;5.40;79.32
80627;BME280;69982;51.758;5.784;2024-03-25T01:34:01;100741.86;;;5.32;79.42
80627;BME280;69982;51.758;5.784;2024-03-25T01:36:32;100746.29;;;5.26;79.53
80627;BME280;69982;51.758;5.784;2024-03-25T01:39:01;100745.65;;;5.24;79.66
80627;BME280;69982;51.758;5.784;2024-03-25T01:41:33;100745.05;;;5.22;79.70
80627;BME280;69982;51.758;5.784;2024-03-25T01:44:03;100739.44;;;5.23;79.69
80627;BME280;69982;51.758;5.784;2024-03-25T01:46:34;100739.64;;;5.22;79.68
80627;BME280;69982;51.758;5.784;2024-03-25T01:49:01;100742.61;;;5.24;79.88
80627;BME280;69982;51.758;5.784;2024-03-25T01:51:33;100743.13;;;5.24;79.75
80627;BME280;69982;51.758;5.784;2024-03-25T01:54:03;100739.13;;;5.22;79.75
80627;BME280;69982;51.758;5.784;2024-03-25T01:56:34;100736.91;;;5.20;79.79
80627;BME280;69982;51.758;5.784;2024-03-25T01:59:04;100744.58;;;5.19;79.60
80627;BME280;69982;51.758;5.784;2024-03-25T02:01:35;100746.98;;;5.15;79.67
80627;BME280;69982;51.758;5.784;2024-03-25T02:04:03;100746.75;;;5.11;79.78
80627;BME280;69982;51.758;5.784;2024-03-25T02:06:32;100748.83;;;5.08;79.99
80627;BME280;69982;51.758;5.784;2024-03-25T02:09:07;100752.96;;;5.08;80.10
80627;BME280;69982;51.758;5.784;2024-03-25T02:11:36;100749.74;;;5.10;80.18
80627;BME280;69982;51.758;5.784;2024-03-25T02:14:05;100746.21;;;5.11;80.36
80627;BME280;69982;51.758;5.784;2024-03-25T02:16:33;100745.10;;;5.13;80.07
80627;BME280;69982;51.758;5.784;2024-03-25T02:19:02;100744.92;;;5.14;80.06
80627;BME280;69982;51.758;5.784;2024-03-25T02:21:32;100745.56;;;5.12;80.20
80627;BME280;69982;51.758;5.784;2024-03-25T02:24:02;100747.21;;;5.12;79.99
80627;BME280;69982;51.758;5.784;2024-03-25T02:26:33;100742.09;;;5.09;80.03
80627;BME280;69982;51.758;5.784;2024-03-25T02:29:01;100745.95;;;5.06;80.17
80627;BME280;69982;51.758;5.784;2024-03-25T02:31:29;100745.17;;;5.02;80.11
80627;BME280;69982;51.758;5.784;2024-03-25T02:34:00;100748.23;;;5.02;80.01
80627;BME280;69982;51.758;5.784;2024-03-25T02:36:28;100746.49;;;5.02;79.83
80627;BME280;69982;51.758;5.784;2024-03-25T02:39:04;100744.60;;;5.03;79.93
80627;BME280;69982;51.758;5.784;2024-03-25T02:41:33;100745.12;;;5.03;79.92
80627;BME280;69982;51.758;5.784;2024-03-25T02:44:07;100751.27;;;5.04;79.78
80627;BME280;69982;51.758;5.784;2024-03-25T02:46:34;100749.59;;;5.03;79.80
80627;BME280;69982;51.758;5.784;2024-03-25T02:49:02;100747.83;;;5.01;79.76
80627;BME280;69982;51.758;5.784;2024-03-25T02:51:33;100743.86;;;4.97;79.68
80627;BME280;69982;51.758;5.784;2024-03-25T02:54:00;100747.09;;;4.93;79.68
80627;BME280;69982;51.758;5.784;2024-03-25T02:56:39;100746.88;;;4.89;79.84
80627;BME280;69982;51.758;5.784;2024-03-25T02:59:07;100747.39;;;4.85;79.89
80627;BME280;69982;51.758;5.784;2024-03-25T03:01:34;100742.55;;;4.81;79.84
80627;BME280;69982;51.758;5.784;2024-03-25T03:04:02;100742.25;;;4.80;79.84
80627;BME280;69982;51.758;5.784;2024-03-25T03:06:31;100736.57;;;4.82;80.06
80627;BME280;69982;51.758;5.784;2024-03-25T03:09:01;100737.73;;;4.87;80.09
80627;BME280;69982;51.758;5.784;2024-03-25T03:11:28;100733.85;;;4.90;79.94
80627;BME280;69982;51.758;5.784;2024-03-25T03:14:00;100734.42;;;4.96;80.07
80627;BME280;69982;51.758;5.784;2024-03-25T03:16:27;100730.96;;;4.99;79.83
80627;BME280;69982;51.758;5.784;2024-03-25T03:18:58;100731.27;;;5.01;79.95
80627;BME280;69982;51.758;5.784;2024-03-25T03:21:26;100732.66;;;5.04;79.92
80627;BME280;69982;51.758;5.784;2024-03-25T03:23:54;100734.27;;;5.06;79.84
80627;BME280;69982;51.758;5.784;2024-03-25T03:26:22;100738.45;;;5.06;79.90
80627;BME280;69982;51.758;5.784;2024-03-25T03:28:54;100738.34;;;5.02;79.73
80627;BME280;69982;51.758;5.784;2024-03-25T03:31:27;100734.75;;;4.98;79.73
80627;BME280;69982;51.758;5.784;2024-03-25T03:33:58;100732.81;;;4.96;79.81
80627;BME280;69982;51.758;5.784;2024-03-25T03:36:28;100730.05;;;4.95;79.77
80627;BME280;69982;51.758;5.784;2024-03-25T03:38:57;100728.18;;;4.94;79.99
80627;BME280;69982;51.758;5.784;2024-03-25T03:41:26;100723.77;;;4.95;79.87
80627;BME280;69982;51.758;5.784;2024-03-25T03:43:53;100723.64;;;4.98;79.87
80627;BME280;69982;51.758;5.784;2024-03-25T03:46:21;100721.44;;;5.03;80.00
80627;BME280;69982;51.758;5.784;2024-03-25T03:48:48;100720.56;;;5.09;79.81
80627;BME280;69982;51.758;5.784;2024-03-25T03:51:16;100721.66;;;5.14;79.82
80627;BME280;69982;51.758;5.784;2024-03-25T03:53:47;100722.34;;;5.19;79.51
80627;BME280;69982;51.758;5.784;2024-03-25T03:56:17;100722.95;;;5.22;79.64
80627;BME280;69982;51.758;5.784;2024-03-25T03:58:45;100722.85;;;5.26;79.34
80627;BME280;69982;51.758;5.784;2024-03-25T04:01:17;100725.09;;;5.27;79.12
80627;BME280;69982;51.758;5.784;2024-03-25T04:03:44;100725.63;;;5.27;79.19
80627;BME280;69982;51.758;5.784;2024-03-25T04:06:15;100724.86;;;5.25;79.00
80627;BME280;69982;51.758;5.784;2024-03-25T04:08:46;100723.80;;;5.23;78.84
80627;BME280;69982;51.758;5.784;2024-03-25T04:11:13;100729.84;;;5.19;78.74
80627;BME280;69982;51.758;5.784;2024-03-25T04:13:41;100733.33;;;5.17;78.64
80627;BME280;69982;51.758;5.784;2024-03-25T04:16:08;100730.45;;;5.15;78.58
80627;BME280;69982;51.758;5.784;2024-03-25T04:18:36;100732.77;;;5.15;78.76
80627;BME280;69982;51.758;5.784;2024-03-25T04:21:04;100732.17;;;5.17;78.69
80627;BME280;69982;51.758;5.784;2024-03-25T04:23:35;100731.28;;;5.24;78.41
80627;BME280;69982;51.758;5.784;2024-03-25T04:26:03;100729.09;;;5.28;78.52
80627;BME280;69982;51.758;5.784;2024-03-25T04:28:33;100732.52;;;5.32;78.43
80627;BME280;69982;51.758;5.784;2024-03-25T04:31:01;100732.33;;;5.34;78.15
80627;BME280;69982;51.758;5.784;2024-03-25T04:33:28;100730.45;;;5.33;78.16
80627;BME280;69982;51.758;5.784;2024-03-25T04:35:59;100729.30;;;5.30;78.41
80627;BME280;69982;51.758;5.784;2024-03-25T04:38:27;100726.73;;;5.27;78.23
80627;BME280;69982;51.758;5.784;2024-03-25T04:40:54;100723.91;;;5.24;78.11
80627;BME280;69982;51.758;5.784;2024-03-25T04:43:22;100727.17;;;5.19;77.97
80627;BME280;69982;51.758;5.784;2024-03-25T04:45:50;100726.20;;;5.14;78.10
80627;BME280;69982;51.758;5.784;2024-03-25T04:48:17;100724.70;;;5.09;78.01
80627;BME280;69982;51.758;5.784;2024-03-25T04:50:45;100726.88;;;5.02;78.02
80627;BME280;69982;51.758;5.784;2024-03-25T04:53:13;100720.96;;;4.99;78.04
80627;BME280;69982;51.758;5.784;2024-03-25T04:55:43;100728.77;;;4.99;78.18
80627;BME280;69982;51.758;5.784;2024-03-25T04:58:12;100732.33;;;5.02;78.26
80627;BME280;69982;51.758;5.784;2024-03-25T05:00:39;100736.27;;;5.06;78.18
80627;BME280;69982;51.758;5.784;2024-03-25T05:03:07;100733.08;;;5.09;78.15
80627;BME280;69982;51.758;5.784;2024-03-25T05:05:35;100730.95;;;5.11;77.95
80627;BME280;69982;51.758;5.784;2024-03-25T05:08:03;100727.95;;;5.12;78.03
80627;BME280;69982;51.758;5.784;2024-03-25T05:10:34;100723.37;;;5.14;77.96
80627;BME280;69982;51.758;5.784;2024-03-25T05:13:02;100726.02;;;5.14;77.93
80627;BME280;69982;51.758;5.784;2024-03-25T05:15:29;100727.63;;;5.12;77.59
80627;BME280;69982;51.758;5.784;2024-03-25T05:18:01;100739.58;;;5.09;77.64
80627;BME280;69982;51.758;5.784;2024-03-25T05:20:34;100738.44;;;5.04;77.65
80627;BME280;69982;51.758;5.784;2024-03-25T05:23:02;100738.17;;;4.98;77.78
80627;BME280;69982;51.758;5.784;2024-03-25T05:25:29;100743.08;;;4.98;77.91
80627;BME280;69982;51.758;5.784;2024-03-25T05:27:59;100748.48;;;4.97;77.69
80627;BME280;69982;51.758;5.784;2024-03-25T05:30:34;100752.69;;;5.05;78.88
80627;BME280;69982;51.758;5.784;2024-03-25T05:33:04;100753.77;;;5.11;78.03
80627;BME280;69982;51.758;5.784;2024-03-25T05:35:35;100753.33;;;5.12;77.76
80627;BME280;69982;51.758;5.784;2024-03-25T05:38:03;100756.40;;;5.09;77.78
80627;BME280;69982;51.758;5.784;2024-03-25T05:40:33;100765.23;;;5.07;77.65
80627;BME280;69982;51.758;5.784;2024-03-25T05:43:01;100762.88;;;5.03;77.48
80627;BME280;69982;51.758;5.784;2024-03-25T05:45:33;100760.78;;;4.98;77.70
80627;BME280;69982;51.758;5.784;2024-03-25T05:48:20;100759.25;;;4.93;77.65
80627;BME280;69982;51.758;5.784;2024-03-25T05:51:00;100758.23;;;4.86;77.67
80627;BME280;69982;51.758;5.784;2024-03-25T05:53:28;100760.48;;;4.79;77.72
80627;BME280;69982;51.758;5.784;2024-03-25T05:56:01;100759.31;;;4.74;77.79
80627;BME280;69982;51.758;5.784;2024-03-25T05:58:34;100752.29;;;4.70;78.07
80627;BME280;69982;51.758;5.784;2024-03-25T06:01:08;100756.23;;;4.68;78.15
80627;BME280;69982;51.758;5.784;2024-03-25T06:03:36;100756.16;;;4.69;78.17
80627;BME280;69982;51.758;5.784;2024-03-25T06:06:08;100751.73;;;4.70;78.28
80627;BME280;69982;51.758;5.784;2024-03-25T06:08:36;100753.73;;;4.72;78.35
80627;BME280;69982;51.758;5.784;2024-03-25T06:11:04;100746.29;;;4.71;78.38
80627;BME280;69982;51.758;5.784;2024-03-25T06:13:35;100745.20;;;4.69;78.60
80627;BME280;69982;51.758;5.784;2024-03-25T06:16:02;100740.95;;;4.68;78.61
80627;BME280;69982;51.758;5.784;2024-03-25T06:18:33;100736.90;;;4.68;78.71
80627;BME280;69982;51.758;5.784;2024-03-25T06:21:00;100739.58;;;4.66;78.84
80627;BME280;69982;51.758;5.784;2024-03-25T06:23:34;100740.40;;;4.62;78.82
80627;BME280;69982;51.758;5.784;2024-03-25T06:26:06;100741.68;;;4.62;79.05
80627;BME280;69982;51.758;5.784;2024-03-25T06:28:34;100736.58;;;4.63;79.09
80627;BME280;69982;51.758;5.784;2024-03-25T06:31:02;100740.13;;;4.68;79.19
80627;BME280;69982;51.758;5.784;2024-03-25T06:33:48;100738.52;;;4.72;79.10
80627;BME280;69982;51.758;5.784;2024-03-25T06:36:36;100742.35;;;4.77;79.29
80627;BME280;69982;51.758;5.784;2024-03-25T06:39:03;100741.52;;;4.81;79.13
80627;BME280;69982;51.758;5.784;2024-03-25T06:41:36;100737.40;;;4.82;79.34
80627;BME280;69982;51.758;5.784;2024-03-25T06:44:10;100738.23;;;4.83;79.27
80627;BME280;69982;51.758;5.784;2024-03-25T06:46:37;100734.08;;;4.81;79.25
80627;BME280;69982;51.758;5.784;2024-03-25T06:49:16;100734.70;;;4.81;79.49
80627;BME280;69982;51.758;5.784;2024-03-25T06:51:45;100733.62;;;4.79;79.58
80627;BME280;69982;51.758;5.784;2024-03-25T06:54:13;100731.21;;;4.80;79.71
80627;BME280;69982;51.758;5.784;2024-03-25T06:56:43;100732.09;;;4.84;79.93
80627;BME280;69982;51.758;5.784;2024-03-25T06:59:10;100737.13;;;4.90;80.03
80627;BME280;69982;51.758;5.784;2024-03-25T07:01:39;100736.73;;;4.98;80.56
80627;BME280;69982;51.758;5.784;2024-03-25T07:04:08;100739.84;;;5.10;80.63
80627;BME280;69982;51.758;5.784;2024-03-25T07:06:36;100736.95;;;5.18;80.56
80627;BME280;69982;51.758;5.784;2024-03-25T07:09:03;100740.12;;;5.27;80.84
80627;BME280;69982;51.758;5.784;2024-03-25T07:11:34;100738.85;;;5.35;80.82
80627;BME280;69982;51.758;5.784;2024-03-25T07:14:01;100743.98;;;5.46;80.99
80627;BME280;69982;51.758;5.784;2024-03-25T07:16:29;100738.11;;;5.56;80.99
80627;BME280;69982;51.758;5.784;2024-03-25T07:19:00;100734.20;;;5.67;80.80
80627;BME280;69982;51.758;5.784;2024-03-25T07:21:28;100736.92;;;5.77;80.70
80627;BME280;69982;51.758;5.784;2024-03-25T07:23:58;100734.61;;;5.87;80.62
80627;BME280;69982;51.758;5.784;2024-03-25T07:26:26;100732.64;;;5.97;80.54
80627;BME280;69982;51.758;5.784;2024-03-25T07:28:53;100734.95;;;6.09;80.85
80627;BME280;69982;51.758;5.784;2024-03-25T07:31:21;100735.29;;;6.21;81.01
80627;BME280;69982;51.758;5.784;2024-03-25T07:33:49;100735.91;;;6.33;80.57
80627;BME280;69982;51.758;5.784;2024-03-25T07:36:16;100732.73;;;6.44;80.56
80627;BME280;69982;51.758;5.784;2024-03-25T07:38:47;100730.66;;;6.55;80.32
80627;BME280;69982;51.758;5.784;2024-03-25T07:41:16;100731.27;;;6.66;80.37
80627;BME280;69982;51.758;5.784;2024-03-25T07:43:45;100733.79;;;6.75;80.28
80627;BME280;69982;51.758;5.784;2024-03-25T07:46:12;100733.16;;;6.86;80.33
80627;BME280;69982;51.758;5.784;2024-03-25T07:48:40;100727.88;;;7.00;80.24
80627;BME280;69982;51.758;5.784;2024-03-25T07:51:09;100728.54;;;7.15;79.81
80627;BME280;69982;51.758;5.784;2024-03-25T07:53:37;100726.74;;;7.34;79.92
80627;BME280;69982;51.758;5.784;2024-03-25T07:56:05;100731.22;;;7.53;79.89
80627;BME280;69982;51.758;5.784;2024-03-25T07:58:33;100731.29;;;7.74;79.52
80627;BME280;69982;51.758;5.784;2024-03-25T08:01:03;100732.94;;;7.92;79.15
80627;BME280;69982;51.758;5.784;2024-03-25T08:03:35;100733.24;;;8.09;78.77
80627;BME280;69982;51.758;5.784;2024-03-25T08:06:03;100734.89;;;8.25;78.61
80627;BME280;69982;51.758;5.784;2024-03-25T08:08:35;100733.61;;;8.39;77.93
80627;BME280;69982;51.758;5.784;2024-03-25T08:11:02;100732.63;;;8.55;77.84
80627;BME280;69982;51.758;5.784;2024-03-25T08:13:34;100736.48;;;8.71;77.58
80627;BME280;69982;51.758;5.784;2024-03-25T08:16:04;100728.46;;;8.86;76.83
80627;BME280;69982;51.758;5.784;2024-03-25T08:18:35;100734.09;;;9.00;76.41
80627;BME280;69982;51.758;5.784;2024-03-25T08:21:02;100738.90;;;9.14;76.53
80627;BME280;69982;51.758;5.784;2024-03-25T08:23:30;100740.27;;;9.27;75.68
80627;BME280;69982;51.758;5.784;2024-03-25T08:26:00;100743.59;;;9.40;75.73
80627;BME280;69982;51.758;5.784;2024-03-25T08:28:34;100744.39;;;9.56;75.10
80627;BME280;69982;51.758;5.784;2024-03-25T08:31:02;100741.36;;;9.75;74.61
80627;BME280;69982;51.758;5.784;2024-03-25T08:33:30;100745.26;;;9.94;74.54
80627;BME280;69982;51.758;5.784;2024-03-25T08:36:01;100742.51;;;10.13;74.00
80627;BME280;69982;51.758;5.784;2024-03-25T08:38:30;100739.76;;;10.28;73.33
80627;BME280;69982;51.758;5.784;2024-03-25T08:41:03;100742.88;;;10.43;72.95
80627;BME280;69982;51.758;5.784;2024-03-25T08:43:41;100741.20;;;10.56;72.75
80627;BME280;69982;51.758;5.784;2024-03-25T08:46:08;100738.25;;;10.68;71.95
80627;BME280;69982;51.758;5.784;2024-03-25T08:48:36;100734.74;;;10.72;70.42
80627;BME280;69982;51.758;5.784;2024-03-25T08:51:08;100733.39;;;10.74;70.46
80627;BME280;69982;51.758;5.784;2024-03-25T08:53:36;100727.83;;;10.80;70.49
80627;BME280;69982;51.758;5.784;2024-03-25T08:56:04;100732.27;;;10.89;70.38
80627;BME280;69982;51.758;5.784;2024-03-25T08:58:35;100730.84;;;10.97;70.12
80627;BME280;69982;51.758;5.784;2024-03-25T09:01:03;100732.09;;;11.03;69.45
80627;BME280;69982;51.758;5.784;2024-03-25T09:03:30;100723.22;;;11.07;68.70
80627;BME280;69982;51.758;5.784;2024-03-25T09:06:10;100718.77;;;11.10;67.83
80627;BME280;69982;51.758;5.784;2024-03-25T09:08:40;100721.92;;;11.12;67.64
80627;BME280;69982;51.758;5.784;2024-03-25T09:11:26;100719.54;;;11.17;68.09
80627;BME280;69982;51.758;5.784;2024-03-25T09:13:59;100720.41;;;11.24;67.62
80627;BME280;69982;51.758;5.784;2024-03-25T09:16:29;100722.15;;;11.30;67.11
80627;BME280;69982;51.758;5.784;2024-03-25T09:19:00;100719.97;;;11.34;66.17
80627;BME280;69982;51.758;5.784;2024-03-25T09:21:27;100721.86;;;11.36;65.67
80627;BME280;69982;51.758;5.784;2024-03-25T09:23:59;100718.36;;;11.38;65.45
80627;BME280;69982;51.758;5.784;2024-03-25T09:26:27;100721.10;;;11.43;65.65
80627;BME280;69982;51.758;5.784;2024-03-25T09:28:55;100722.61;;;11.49;65.76
80627;BME280;69982;51.758;5.784;2024-03-25T09:31:22;100717.73;;;11.55;64.83
80627;BME280;69982;51.758;5.784;2024-03-25T09:33:52;100716.43;;;11.57;64.99
80627;BME280;69982;51.758;5.784;2024-03-25T09:36:21;100715.55;;;11.64;64.87
80627;BME280;69982;51.758;5.784;2024-03-25T09:38:51;100711.11;;;11.72;64.63
80627;BME280;69982;51.758;5.784;2024-03-25T09:41:22;100707.02;;;11.81;64.42
80627;BME280;69982;51.758;5.784;2024-03-25T09:43:54;100700.38;;;11.83;63.59
80627;BME280;69982;51.758;5.784;2024-03-25T09:46:26;100697.98;;;11.79;63.01
80627;BME280;69982;51.758;5.784;2024-03-25T09:48:53;100695.85;;;11.75;62.87
80627;BME280;69982;51.758;5.784;2024-03-25T09:51:22;100699.67;;;11.73;62.15
80627;BME280;69982;51.758;5.784;2024-03-25T09:53:51;100696.43;;;11.70;62.22
80627;BME280;69982;51.758;5.784;2024-03-25T09:56:19;100696.59;;;11.70;62.42
80627;BME280;69982;51.758;5.784;2024-03-25T09:58:46;100696.31;;;11.74;62.46
80627;BME280;69982;51.758;5.784;2024-03-25T10:01:15;100695.83;;;11.77;61.82
80627;BME280;69982;51.758;5.784;2024-03-25T10:03:43;100691.30;;;11.83;61.55
80627;BME280;69982;51.758;5.784;2024-03-25T10:06:10;100688.23;;;11.89;61.99
80627;BME280;69982;51.758;5.784;2024-03-25T10:08:38;100681.27;;;11.93;62.01
80627;BME280;69982;51.758;5.784;2024-03-25T10:11:06;100670.42;;;11.92;61.24
80627;BME280;69982;51.758;5.784;2024-03-25T10:13:34;100664.98;;;11.94;61.19
80627;BME280;69982;51.758;5.784;2024-03-25T10:16:05;100662.50;;;11.98;61.11
80627;BME280;69982;51.758;5.784;2024-03-25T10:18:34;100656.02;;;12.01;60.35
80627;BME280;69982;51.758;5.784;2024-03-25T10:21:01;100656.46;;;12.06;60.53
80627;BME280;69982;51.758;5.784;2024-03-25T10:23:35;100651.36;;;12.17;60.84
80627;BME280;69982;51.758;5.784;2024-03-25T10:26:07;100654.06;;;12.32;60.90
80627;BME280;69982;51.758;5.784;2024-03-25T10:28:35;100646.51;;;12.46;60.44
80627;BME280;69982;51.758;5.784;2024-03-25T10:31:03;100649.98;;;12.60;60.44
80627;BME280;69982;51.758;5.784;2024-03-25T10:33:34;100646.06;;;12.73;59.62
80627;BME280;69982;51.758;5.784;2024-03-25T10:36:03;100644.34;;;12.81;58.21
80627;BME280;69982;51.758;5.784;2024-03-25T10:38:31;100645.93;;;12.89;57.95
80627;BME280;69982;51.758;5.784;2024-03-25T10:41:03;100638.69;;;12.92;57.05
80627;BME280;69982;51.758;5.784;2024-03-25T10:43:34;100638.38;;;12.96;57.94
80627;BME280;69982;51.758;5.784;2024-03-25T10:46:06;100637.23;;;13.01;57.32
80627;BME280;69982;51.758;5.784;2024-03-25T10:48:39;100633.40;;;13.03;58.05
80627;BME280;69982;51.758;5.784;2024-03-25T10:51:12;100631.73;;;13.09;57.66
80627;BME280;69982;51.758;5.784;2024-03-25T10:53:41;100628.09;;;13.15;57.43
80627;BME280;69982;51.758;5.784;2024-03-25T10:56:10;100622.48;;;13.21;56.45
80627;BME280;69982;51.758;5.784;2024-03-25T10:58:38;100619.27;;;13.25;55.94
80627;BME280;69982;51.758;5.784;2024-03-25T11:01:10;100616.48;;;13.30;55.74
80627;BME280;69982;51.758;5.784;2024-03-25T11:03:41;100612.55;;;13.34;53.77
80627;BME280;69982;51.758;5.784;2024-03-25T11:06:16;100608.56;;;13.39;54.58
80627;BME280;69982;51.758;5.784;2024-03-25T11:08:44;100611.12;;;13.49;54.65
80627;BME280;69982;51.758;5.784;2024-03-25T11:11:15;100606.50;;;13.55;53.24
80627;BME280;69982;51.758;5.784;2024-03-25T11:13:42;100603.45;;;13.59;53.59
80627;BME280;69982;51.758;5.784;2024-03-25T11:16:10;100606.45;;;13.59;52.80
80627;BME280;69982;51.758;5.784;2024-03-25T11:18:50;100608.19;;;13.57;53.44
80627;BME280;69982;51.758;5.784;2024-03-25T11:21:24;100602.52;;;13.55;53.40
80627;BME280;69982;51.758;5.784;2024-03-25T11:23:52;100600.16;;;13.58;53.23
80627;BME280;69982;51.758;5.784;2024-03-25T11:26:26;100597.61;;;13.63;52.34
80627;BME280;69982;51.758;5.784;2024-03-25T11:29:00;100595.98;;;13.70;51.72
80627;BME280;69982;51.758;5.784;2024-03-25T11:31:34;100596.61;;;13.75;52.10
80627;BME280;69982;51.758;5.784;2024-03-25T11:34:05;100595.66;;;13.84;51.41
80627;BME280;69982;51.758;5.784;2024-03-25T11:36:35;100586.55;;;13.95;52.83
80627;BME280;69982;51.758;5.784;2024-03-25T11:39:06;100583.32;;;14.04;51.23
80627;BME280;69982;51.758;5.784;2024-03-25T11:41:40;100580.61;;;14.02;50.26
80627;BME280;69982;51.758;5.784;2024-03-25T11:44:09;100574.77;;;14.06;50.69
80627;BME280;69982;51.758;5.784;2024-03-25T11:46:39;100573.18;;;14.16;50.31
80627;BME280;69982;51.758;5.784;2024-03-25T11:49:07;100570.45;;;14.26;50.45
80627;BME280;69982;51.758;5.784;2024-03-25T11:51:39;100562.60;;;14.43;51.49
80627;BME280;69982;51.758;5.784;2024-03-25T11:54:10;100563.76;;;14.66;51.06
80627;BME280;69982;51.758;5.784;2024-03-25T11:56:38;100564.14;;;14.87;50.58
80627;BME280;69982;51.758;5.784;2024-03-25T11:59:06;100558.30;;;15.04;49.68
80627;BME280;69982;51.758;5.784;2024-03-25T12:01:38;100555.67;;;15.20;48.72
80627;BME280;69982;51.758;5.784;2024-03-25T12:04:15;100550.21;;;15.33;48.44
80627;BME280;69982;51.758;5.784;2024-03-25T12:06:44;100544.23;;;15.41;48.16
80627;BME280;69982;51.758;5.784;2024-03-25T12:09:12;100544.61;;;15.42;46.76
80627;BME280;69982;51.758;5.784;2024-03-25T12:12:03;100541.48;;;15.46;46.46
80627;BME280;69982;51.758;5.784;2024-03-25T12:14:30;100538.02;;;15.56;47.74
80627;BME280;69982;51.758;5.784;2024-03-25T12:17:00;100531.64;;;15.69;47.56
80627;BME280;69982;51.758;5.784;2024-03-25T12:19:28;100525.55;;;15.80;46.57
80627;BME280;69982;51.758;5.784;2024-03-25T12:22:00;100519.01;;;15.95;46.99
80627;BME280;69982;51.758;5.784;2024-03-25T12:24:28;100508.07;;;16.09;46.30
80627;BME280;69982;51.758;5.784;2024-03-25T12:26:56;100508.66;;;16.21;45.32
80627;BME280;69982;51.758;5.784;2024-03-25T12:29:23;100500.48;;;16.33;44.60
80627;BME280;69982;51.758;5.784;2024-03-25T12:31:55;100498.11;;;16.46;44.78
80627;BME280;69982;51.758;5.784;2024-03-25T12:34:26;100492.19;;;16.57;44.50
80627;BME280;69982;51.758;5.784;2024-03-25T12:37:03;100482.53;;;16.64;44.31
80627;BME280;69982;51.758;5.784;2024-03-25T12:39:34;100484.98;;;16.72;43.72
80627;BME280;69982;51.758;5.784;2024-03-25T12:42:04;100476.35;;;16.78;42.81
80627;BME280;69982;51.758;5.784;2024-03-25T12:44:36;100471.30;;;16.89;42.22
80627;BME280;69982;51.758;5.784;2024-03-25T12:47:09;100475.59;;;16.89;41.67
80627;BME280;69982;51.758;5.784;2024-03-25T12:49:37;100475.04;;;16.93;42.25
80627;BME280;69982;51.758;5.784;2024-03-25T12:52:05;100475.99;;;17.07;43.28
80627;BME280;69982;51.758;5.784;2024-03-25T12:54:36;100471.43;;;17.18;41.07
80627;BME280;69982;51.758;5.784;2024-03-25T12:57:04;100468.70;;;17.31;41.53
80627;BME280;69982;51.758;5.784;2024-03-25T12:59:35;100461.41;;;17.37;39.17
80627;BME280;69982;51.758;5.784;2024-03-25T13:02:03;100454.52;;;17.44;39.94
80627;BME280;69982;51.758;5.784;2024-03-25T13:04:31;100455.11;;;17.53;40.38
80627;BME280;69982;51.758;5.784;2024-03-25T13:07:05;100457.27;;;17.60;39.97
80627;BME280;69982;51.758;5.784;2024-03-25T13:09:33;100453.63;;;17.70;40.59
80627;BME280;69982;51.758;5.784;2024-03-25T13:12:01;100455.30;;;17.85;40.42